sensor_id;sensor_type;location;lat;lon;timestamp;pressure;altitude;pressure_sealevel;temperature;humidity
11017;BME280;54687;50.800;6.772;2022-09-29T00:01:14;61097.09;;;-144.06;62.04
11017;BME280;54687;50.800;6.772;2022-09-29T00:03:41;61086.63;;;-144.06;62.33
11017;BME280;54687;50.800;6.772;2022-09-29T00:06:12;61118.06;;;-144.06;62.63
11017;BME280;54687;50.800;6.772;2022-09-29T00:08:39;61101.28;;;-144.06;63.21
11017;BME280;54687;50.800;6.772;2022-09-29T00:11:07;61103.38;;;-144.06;62.81
11017;BME280;54687;50.800;6.772;2022-09-29T00:13:33;61067.75;;;-144.06;63.37
11017;BME280;54687;50.800;6.772;2022-09-29T00:16:01;61109.69;;;-144.06;63.25
11017;BME280;54687;50.800;6.772;2022-09-29T00:18:30;61097.09;;;-144.06;63.24
11017;BME280;54687;50.800;6.772;2022-09-29T00:20:59;61118.06;;;-144.06;62.90
11017;BME280;54687;50.800;6.772;2022-09-29T00:23:27;61122.25;;;-144.06;62.93
11017;BME280;54687;50.800;6.772;2022-09-29T00:26:01;61160.00;;;-144.06;63.13
11017;BME280;54687;50.800;6.772;2022-09-29T00:28:29;61105.50;;;-144.06;62.95
11017;BME280;54687;50.800;6.772;2022-09-29T00:30:57;61097.09;;;-144.06;63.36
11017;BME280;54687;50.800;6.772;2022-09-29T00:33:24;61101.28;;;-144.06;63.45
11017;BME280;54687;50.800;6.772;2022-09-29T00:36:00;61113.88;;;-144.06;63.62
11017;BME280;54687;50.800;6.772;2022-09-29T00:38:31;61076.13;;;-144.06;63.76
11017;BME280;54687;50.800;6.772;2022-09-29T00:40:59;61076.13;;;-144.06;63.84
11017;BME280;54687;50.800;6.772;2022-09-29T00:43:47;61105.50;;;-144.06;63.87
11017;BME280;54687;50.800;6.772;2022-09-29T00:46:16;61092.91;;;-144.06;63.81
11017;BME280;54687;50.800;6.772;2022-09-29T00:48:45;61113.88;;;-144.06;63.83
11017;BME280;54687;50.800;6.772;2022-09-29T00:51:14;61111.78;;;-144.06;63.62
11017;BME280;54687;50.800;6.772;2022-09-29T00:53:42;61122.25;;;-144.06;63.91
11017;BME280;54687;50.800;6.772;2022-09-29T00:56:11;61101.28;;;-144.06;63.67
11017;BME280;54687;50.800;6.772;2022-09-29T00:58:41;61101.28;;;-144.06;63.57
11017;BME280;54687;50.800;6.772;2022-09-29T01:01:11;61105.50;;;-144.06;63.82
11017;BME280;54687;50.800;6.772;2022-09-29T01:03:41;61136.94;;;-144.06;63.87
11017;BME280;54687;50.800;6.772;2022-09-29T01:06:15;61092.91;;;-144.06;64.30
11017;BME280;54687;50.800;6.772;2022-09-29T01:08:46;61134.84;;;-144.06;64.10
11017;BME280;54687;50.800;6.772;2022-09-29T01:11:17;61136.94;;;-144.06;64.06
11017;BME280;54687;50.800;6.772;2022-09-29T01:13:45;61113.88;;;-144.06;64.08
11017;BME280;54687;50.800;6.772;2022-09-29T01:16:12;61147.41;;;-144.06;64.09
11017;BME280;54687;50.800;6.772;2022-09-29T01:18:40;61101.28;;;-144.06;64.28
11017;BME280;54687;50.800;6.772;2022-09-29T01:21:14;61130.66;;;-144.06;64.31
11017;BME280;54687;50.800;6.772;2022-09-29T01:24:14;61088.72;;;-144.06;64.21
11017;BME280;54687;50.800;6.772;2022-09-29T01:27:17;61136.94;;;-144.06;64.30
11017;BME280;54687;50.800;6.772;2022-09-29T01:29:54;61124.34;;;-144.06;64.16
11017;BME280;54687;50.800;6.772;2022-09-29T01:32:38;61084.53;;;-144.06;64.42
11017;BME280;54687;50.800;6.772;2022-09-29T01:35:14;61109.69;;;-144.06;64.74
11017;BME280;54687;50.800;6.772;2022-09-29T01:37:50;61111.78;;;-144.06;64.86
11017;BME280;54687;50.800;6.772;2022-09-29T01:40:26;61101.28;;;-144.06;64.64
11017;BME280;54687;50.800;6.772;2022-09-29T01:43:03;61130.66;;;-144.06;65.08
11017;BME280;54687;50.800;6.772;2022-09-29T01:45:36;61105.50;;;-144.06;64.92
11017;BME280;54687;50.800;6.772;2022-09-29T01:48:07;61109.69;;;-144.06;65.04
11017;BME280;54687;50.800;6.772;2022-09-29T01:50:38;61130.66;;;-144.06;64.80
11017;BME280;54687;50.800;6.772;2022-09-29T01:53:11;61122.25;;;-144.06;64.81
11017;BME280;54687;50.800;6.772;2022-09-29T01:55:42;61078.25;;;-144.06;65.02
11017;BME280;54687;50.800;6.772;2022-09-29T01:58:14;61124.34;;;-144.06;65.26
11017;BME280;54687;50.800;6.772;2022-09-29T02:00:48;61088.72;;;-144.06;65.17
11017;BME280;54687;50.800;6.772;2022-09-29T02:03:19;61109.69;;;-144.06;65.08
11017;BME280;54687;50.800;6.772;2022-09-29T02:05:50;61101.28;;;-144.06;65.03
11017;BME280;54687;50.800;6.772;2022-09-29T02:08:22;61111.78;;;-144.06;65.32
11017;BME280;54687;50.800;6.772;2022-09-29T02:10:55;61082.44;;;-144.06;65.04
11017;BME280;54687;50.800;6.772;2022-09-29T02:13:25;61118.06;;;-144.06;64.71
11017;BME280;54687;50.800;6.772;2022-09-29T02:15:56;61124.34;;;-144.06;64.69
11017;BME280;54687;50.800;6.772;2022-09-29T02:18:28;61067.75;;;-144.06;64.59
11017;BME280;54687;50.800;6.772;2022-09-29T02:20:56;61128.53;;;-144.06;64.96
11017;BME280;54687;50.800;6.772;2022-09-29T02:23:23;61122.25;;;-144.06;64.86
11017;BME280;54687;50.800;6.772;2022-09-29T02:25:51;61088.72;;;-144.06;64.97
11017;BME280;54687;50.800;6.772;2022-09-29T02:28:18;61099.19;;;-144.06;65.26
11017;BME280;54687;50.800;6.772;2022-09-29T02:30:45;61143.22;;;-144.06;65.21
11017;BME280;54687;50.800;6.772;2022-09-29T02:33:19;61122.25;;;-144.06;65.33
11017;BME280;54687;50.800;6.772;2022-09-29T02:35:55;61105.50;;;-144.06;65.11
11017;BME280;54687;50.800;6.772;2022-09-29T02:38:35;61174.66;;;-144.06;65.43
11017;BME280;54687;50.800;6.772;2022-09-29T02:41:14;61174.66;;;-144.06;65.33
11017;BME280;54687;50.800;6.772;2022-09-29T02:46:42;61099.19;;;-144.06;65.63
11017;BME280;54687;50.800;6.772;2022-09-29T02:49:28;61078.25;;;-144.06;65.68
11017;BME280;54687;50.800;6.772;2022-09-29T02:52:01;61097.09;;;-144.06;65.95
11017;BME280;54687;50.800;6.772;2022-09-29T02:54:47;61097.09;;;-144.06;65.96
11017;BME280;54687;50.800;6.772;2022-09-29T02:57:19;61107.59;;;-144.06;66.03
11017;BME280;54687;50.800;6.772;2022-09-29T02:59:58;61160.00;;;-144.06;65.83
11017;BME280;54687;50.800;6.772;2022-09-29T03:02:30;61097.09;;;-144.06;65.46
11017;BME280;54687;50.800;6.772;2022-09-29T03:04:57;61107.59;;;-144.06;65.21
11017;BME280;54687;50.800;6.772;2022-09-29T03:07:25;61130.66;;;-144.06;65.31
11017;BME280;54687;50.800;6.772;2022-09-29T03:09:51;61109.69;;;-144.06;65.74
11017;BME280;54687;50.800;6.772;2022-09-29T03:12:18;61122.25;;;-144.06;65.77
11017;BME280;54687;50.800;6.772;2022-09-29T03:14:46;61078.25;;;-144.06;65.85
11017;BME280;54687;50.800;6.772;2022-09-29T03:17:12;61105.50;;;-144.06;65.71
11017;BME280;54687;50.800;6.772;2022-09-29T03:19:39;61162.09;;;-144.06;65.85
11017;BME280;54687;50.800;6.772;2022-09-29T03:22:06;61067.75;;;-144.06;66.10
11017;BME280;54687;50.800;6.772;2022-09-29T03:24:34;61101.28;;;-144.06;65.38
11017;BME280;54687;50.800;6.772;2022-09-29T03:27:00;61132.75;;;-144.06;65.74
11017;BME280;54687;50.800;6.772;2022-09-29T03:29:27;61109.69;;;-144.06;66.03
11017;BME280;54687;50.800;6.772;2022-09-29T03:31:54;61126.44;;;-144.06;66.09
11017;BME280;54687;50.800;6.772;2022-09-29T03:34:21;61088.72;;;-144.06;66.30
11017;BME280;54687;50.800;6.772;2022-09-29T03:36:47;61143.22;;;-144.06;66.02
11017;BME280;54687;50.800;6.772;2022-09-29T03:39:14;61124.34;;;-144.06;66.09
11017;BME280;54687;50.800;6.772;2022-09-29T03:44:47;61124.34;;;-144.06;65.99
11017;BME280;54687;50.800;6.772;2022-09-29T03:47:13;61160.00;;;-144.06;65.65
11017;BME280;54687;50.800;6.772;2022-09-29T03:49:40;61101.28;;;-144.06;65.97
11017;BME280;54687;50.800;6.772;2022-09-29T03:52:07;61107.59;;;-144.06;66.23
11017;BME280;54687;50.800;6.772;2022-09-29T03:54:33;61130.66;;;-144.06;66.11
11017;BME280;54687;50.800;6.772;2022-09-29T03:57:00;61101.28;;;-144.06;66.00
11017;BME280;54687;50.800;6.772;2022-09-29T03:59:27;61126.44;;;-144.06;66.34
11017;BME280;54687;50.800;6.772;2022-09-29T04:01:55;61141.13;;;-144.06;65.81
11017;BME280;54687;50.800;6.772;2022-09-29T04:04:22;61113.88;;;-144.06;66.04
11017;BME280;54687;50.800;6.772;2022-09-29T04:06:48;61122.25;;;-144.06;66.25
11017;BME280;54687;50.800;6.772;2022-09-29T04:09:15;61086.63;;;-144.06;66.22
11017;BME280;54687;50.800;6.772;2022-09-29T04:11:42;61162.09;;;-144.06;66.12
11017;BME280;54687;50.800;6.772;2022-09-29T04:14:08;61157.91;;;-144.06;66.39
11017;BME280;54687;50.800;6.772;2022-09-29T04:16:35;61139.03;;;-144.06;66.29
11017;BME280;54687;50.800;6.772;2022-09-29T04:19:03;61122.25;;;-144.06;65.63
11017;BME280;54687;50.800;6.772;2022-09-29T04:21:30;61162.09;;;-144.06;65.53
11017;BME280;54687;50.800;6.772;2022-09-29T04:23:56;61130.66;;;-144.06;66.00
11017;BME280;54687;50.800;6.772;2022-09-29T04:26:23;61149.50;;;-144.06;66.05
11017;BME280;54687;50.800;6.772;2022-09-29T04:28:51;61101.28;;;-144.06;65.99
11017;BME280;54687;50.800;6.772;2022-09-29T04:31:19;61113.88;;;-144.06;66.42
11017;BME280;54687;50.800;6.772;2022-09-29T04:33:46;61136.94;;;-144.06;66.46
11017;BME280;54687;50.800;6.772;2022-09-29T04:36:14;61126.44;;;-144.06;66.85
11017;BME280;54687;50.800;6.772;2022-09-29T04:38:41;61103.38;;;-144.06;66.46
11017;BME280;54687;50.800;6.772;2022-09-29T04:41:09;61145.31;;;-144.06;66.31
11017;BME280;54687;50.800;6.772;2022-09-29T04:43:35;61139.03;;;-144.06;66.28
11017;BME280;54687;50.800;6.772;2022-09-29T04:46:03;61092.91;;;-144.06;66.69
11017;BME280;54687;50.800;6.772;2022-09-29T04:48:32;61115.97;;;-144.06;66.73
11017;BME280;54687;50.800;6.772;2022-09-29T04:50:59;61134.84;;;-144.06;66.71
11017;BME280;54687;50.800;6.772;2022-09-29T04:53:27;61088.72;;;-144.06;66.09
11017;BME280;54687;50.800;6.772;2022-09-29T04:55:53;61097.09;;;-144.06;66.05
11017;BME280;54687;50.800;6.772;2022-09-29T04:58:20;61101.28;;;-144.06;66.22
11017;BME280;54687;50.800;6.772;2022-09-29T05:00:47;61128.53;;;-144.06;66.20
11017;BME280;54687;50.800;6.772;2022-09-29T05:03:13;61109.69;;;-144.06;66.42
11017;BME280;54687;50.800;6.772;2022-09-29T05:05:40;61122.25;;;-144.06;66.68
11017;BME280;54687;50.800;6.772;2022-09-29T05:08:07;61120.16;;;-144.06;66.67
11017;BME280;54687;50.800;6.772;2022-09-29T05:10:35;61149.50;;;-144.06;66.92
11017;BME280;54687;50.800;6.772;2022-09-29T05:13:02;61076.13;;;-144.06;66.50
11017;BME280;54687;50.800;6.772;2022-09-29T05:15:28;61134.84;;;-144.06;66.57
11017;BME280;54687;50.800;6.772;2022-09-29T05:18:00;61107.59;;;-144.06;66.89
11017;BME280;54687;50.800;6.772;2022-09-29T05:20:26;61088.72;;;-144.06;66.72
11017;BME280;54687;50.800;6.772;2022-09-29T05:22:53;61109.69;;;-144.06;66.76
11017;BME280;54687;50.800;6.772;2022-09-29T05:25:20;61105.50;;;-144.06;66.32
11017;BME280;54687;50.800;6.772;2022-09-29T05:27:48;61111.78;;;-144.06;66.07
11017;BME280;54687;50.800;6.772;2022-09-29T05:30:18;61164.19;;;-144.06;66.02
11017;BME280;54687;50.800;6.772;2022-09-29T05:32:45;61139.03;;;-144.06;66.17
11017;BME280;54687;50.800;6.772;2022-09-29T05:35:12;61134.84;;;-144.06;66.30
11017;BME280;54687;50.800;6.772;2022-09-29T05:37:39;61101.28;;;-144.06;66.51
11017;BME280;54687;50.800;6.772;2022-09-29T05:40:07;61113.88;;;-144.06;66.18
11017;BME280;54687;50.800;6.772;2022-09-29T05:42:34;61139.03;;;-144.06;66.31
11017;BME280;54687;50.800;6.772;2022-09-29T05:45:02;61126.44;;;-144.06;66.35
11017;BME280;54687;50.800;6.772;2022-09-29T05:47:29;61128.53;;;-144.06;66.51
11017;BME280;54687;50.800;6.772;2022-09-29T05:49:56;61109.69;;;-144.06;66.19
11017;BME280;54687;50.800;6.772;2022-09-29T05:52:23;61113.88;;;-144.06;66.34
11017;BME280;54687;50.800;6.772;2022-09-29T05:54:50;61147.41;;;-144.06;66.43
11017;BME280;54687;50.800;6.772;2022-09-29T05:57:17;61109.69;;;-144.06;66.41
11017;BME280;54687;50.800;6.772;2022-09-29T05:59:45;61115.97;;;-144.06;66.41
11017;BME280;54687;50.800;6.772;2022-09-29T06:02:13;61132.75;;;-144.06;66.22
11017;BME280;54687;50.800;6.772;2022-09-29T06:04:41;61109.69;;;-144.06;65.92
11017;BME280;54687;50.800;6.772;2022-09-29T06:07:07;61141.13;;;-144.06;65.60
11017;BME280;54687;50.800;6.772;2022-09-29T06:09:34;61103.38;;;-144.06;65.41
11017;BME280;54687;50.800;6.772;2022-09-29T06:12:02;61113.88;;;-144.06;65.68
11017;BME280;54687;50.800;6.772;2022-09-29T06:14:29;61126.44;;;-144.06;65.48
11017;BME280;54687;50.800;6.772;2022-09-29T06:16:56;61134.84;;;-144.06;65.08
11017;BME280;54687;50.800;6.772;2022-09-29T06:19:24;61113.88;;;-144.06;64.89
11017;BME280;54687;50.800;6.772;2022-09-29T06:21:51;61105.50;;;-144.06;65.01
11017;BME280;54687;50.800;6.772;2022-09-29T06:24:18;61136.94;;;-144.06;64.81
11017;BME280;54687;50.800;6.772;2022-09-29T06:26:44;61124.34;;;-144.06;64.76
11017;BME280;54687;50.800;6.772;2022-09-29T06:29:13;61109.69;;;-144.06;64.50
11017;BME280;54687;50.800;6.772;2022-09-29T06:31:40;61124.34;;;-144.06;64.34
11017;BME280;54687;50.800;6.772;2022-09-29T06:34:09;61076.13;;;-144.06;64.54
11017;BME280;54687;50.800;6.772;2022-09-29T06:36:39;61086.63;;;-144.06;64.18
11017;BME280;54687;50.800;6.772;2022-09-29T06:39:24;61124.34;;;-144.06;64.48
11017;BME280;54687;50.800;6.772;2022-09-29T06:41:51;61113.88;;;-144.06;64.13
11017;BME280;54687;50.800;6.772;2022-09-29T06:44:19;61084.53;;;-144.06;63.99
11017;BME280;54687;50.800;6.772;2022-09-29T06:46:46;61109.69;;;-144.06;63.91
11017;BME280;54687;50.800;6.772;2022-09-29T06:49:15;61122.25;;;-144.06;63.67
11017;BME280;54687;50.800;6.772;2022-09-29T06:51:44;61122.25;;;-144.06;63.69
11017;BME280;54687;50.800;6.772;2022-09-29T06:54:11;61105.50;;;-144.06;64.06
11017;BME280;54687;50.800;6.772;2022-09-29T06:56:38;61088.72;;;-144.06;63.77
11017;BME280;54687;50.800;6.772;2022-09-29T06:59:05;61084.53;;;-144.06;63.73
11017;BME280;54687;50.800;6.772;2022-09-29T07:01:32;61136.94;;;-144.06;63.74
11017;BME280;54687;50.800;6.772;2022-09-29T07:03:58;61059.38;;;-144.06;63.52
11017;BME280;54687;50.800;6.772;2022-09-29T07:06:27;61097.09;;;-144.06;63.82
11017;BME280;54687;50.800;6.772;2022-09-29T07:08:58;61118.06;;;-144.06;63.99
11017;BME280;54687;50.800;6.772;2022-09-29T07:11:26;61069.84;;;-144.06;63.84
11017;BME280;54687;50.800;6.772;2022-09-29T07:13:53;61101.28;;;-144.06;63.62
11017;BME280;54687;50.800;6.772;2022-09-29T07:16:19;61101.28;;;-144.06;63.45
11017;BME280;54687;50.800;6.772;2022-09-29T07:18:48;61120.16;;;-144.06;63.37
11017;BME280;54687;50.800;6.772;2022-09-29T07:21:15;61084.53;;;-144.06;63.52
11017;BME280;54687;50.800;6.772;2022-09-29T07:23:43;61120.16;;;-144.06;63.02
11017;BME280;54687;50.800;6.772;2022-09-29T07:26:12;61097.09;;;-144.06;62.43
11017;BME280;54687;50.800;6.772;2022-09-29T07:28:39;61067.75;;;-144.06;62.61
11017;BME280;54687;50.800;6.772;2022-09-29T07:31:07;61183.06;;;-144.06;62.49
11017;BME280;54687;50.800;6.772;2022-09-29T07:33:34;61107.59;;;-144.06;62.39
11017;BME280;54687;50.800;6.772;2022-09-29T07:36:02;61067.75;;;-144.06;62.22
11017;BME280;54687;50.800;6.772;2022-09-29T07:38:29;61080.34;;;-144.06;62.06
11017;BME280;54687;50.800;6.772;2022-09-29T07:40:59;61074.03;;;-144.06;62.09
11017;BME280;54687;50.800;6.772;2022-09-29T07:43:28;61055.19;;;-144.06;62.00
11017;BME280;54687;50.800;6.772;2022-09-29T07:45:57;61055.19;;;-144.06;62.11
11017;BME280;54687;50.800;6.772;2022-09-29T07:48:25;61080.34;;;-144.06;62.00
11017;BME280;54687;50.800;6.772;2022-09-29T07:50:59;61101.28;;;-144.06;61.71
11017;BME280;54687;50.800;6.772;2022-09-29T07:53:27;61092.91;;;-144.06;61.66
11017;BME280;54687;50.800;6.772;2022-09-29T07:55:53;61090.81;;;-144.06;61.88
11017;BME280;54687;50.800;6.772;2022-09-29T07:58:20;61067.75;;;-144.06;60.98
11017;BME280;54687;50.800;6.772;2022-09-29T08:00:53;61084.53;;;-144.06;60.62
11017;BME280;54687;50.800;6.772;2022-09-29T08:03:20;61069.84;;;-144.06;59.80
11017;BME280;54687;50.800;6.772;2022-09-29T08:05:50;61057.28;;;-144.06;59.33
11017;BME280;54687;50.800;6.772;2022-09-29T08:08:16;61092.91;;;-144.06;59.46
11017;BME280;54687;50.800;6.772;2022-09-29T08:10:43;61105.50;;;-144.06;59.39
11017;BME280;54687;50.800;6.772;2022-09-29T08:13:09;61128.53;;;-144.06;59.44
11017;BME280;54687;50.800;6.772;2022-09-29T08:15:36;61055.19;;;-144.06;59.50
11017;BME280;54687;50.800;6.772;2022-09-29T08:18:04;61092.91;;;-144.06;59.25
11017;BME280;54687;50.800;6.772;2022-09-29T08:20:34;61057.28;;;-144.06;59.70
11017;BME280;54687;50.800;6.772;2022-09-29T08:23:01;61080.34;;;-144.06;59.13
11017;BME280;54687;50.800;6.772;2022-09-29T08:25:28;61048.88;;;-144.06;58.71
11017;BME280;54687;50.800;6.772;2022-09-29T08:27:54;61069.84;;;-144.06;58.25
11017;BME280;54687;50.800;6.772;2022-09-29T08:30:22;61048.88;;;-144.06;58.23
11017;BME280;54687;50.800;6.772;2022-09-29T08:32:52;61067.75;;;-144.06;58.47
11017;BME280;54687;50.800;6.772;2022-09-29T08:35:21;61046.78;;;-144.06;58.12
11017;BME280;54687;50.800;6.772;2022-09-29T08:37:48;61071.94;;;-144.06;56.65
11017;BME280;54687;50.800;6.772;2022-09-29T08:40:15;61046.78;;;-144.06;56.17
11017;BME280;54687;50.800;6.772;2022-09-29T08:42:48;61030.03;;;-144.06;56.43
11017;BME280;54687;50.800;6.772;2022-09-29T08:45:21;61030.03;;;-144.06;56.50
11017;BME280;54687;50.800;6.772;2022-09-29T08:47:51;61040.50;;;-144.06;56.47
11017;BME280;54687;50.800;6.772;2022-09-29T08:50:25;61046.78;;;-144.06;56.80
11017;BME280;54687;50.800;6.772;2022-09-29T08:52:56;61082.44;;;-144.06;56.85
11017;BME280;54687;50.800;6.772;2022-09-29T08:55:38;61105.50;;;-144.06;56.69
11017;BME280;54687;50.800;6.772;2022-09-29T08:58:09;61051.00;;;-144.06;56.73
11017;BME280;54687;50.800;6.772;2022-09-29T09:00:42;61006.97;;;-144.06;56.60
11017;BME280;54687;50.800;6.772;2022-09-29T09:03:31;61023.75;;;-144.06;56.42
11017;BME280;54687;50.800;6.772;2022-09-29T09:06:17;61055.19;;;-144.06;56.47
11017;BME280;54687;50.800;6.772;2022-09-29T09:09:01;61034.22;;;-144.06;55.94
11017;BME280;54687;50.800;6.772;2022-09-29T09:11:42;61030.03;;;-144.06;56.19
11017;BME280;54687;50.800;6.772;2022-09-29T09:14:22;61053.09;;;-144.06;55.75
11017;BME280;54687;50.800;6.772;2022-09-29T09:17:01;61038.41;;;-144.06;55.22
11017;BME280;54687;50.800;6.772;2022-09-29T09:19:54;61006.97;;;-144.06;54.72
11017;BME280;54687;50.800;6.772;2022-09-29T09:22:34;61004.88;;;-144.06;54.28
11017;BME280;54687;50.800;6.772;2022-09-29T09:25:17;61002.78;;;-144.06;54.09
11017;BME280;54687;50.800;6.772;2022-09-29T09:27:47;61053.09;;;-144.06;53.35
11017;BME280;54687;50.800;6.772;2022-09-29T09:30:17;60971.34;;;-144.06;52.84
11017;BME280;54687;50.800;6.772;2022-09-29T09:32:46;61015.34;;;-144.06;52.66
11017;BME280;54687;50.800;6.772;2022-09-29T09:35:26;61021.63;;;-144.06;52.31
11017;BME280;54687;50.800;6.772;2022-09-29T09:37:57;61023.75;;;-144.06;52.79
11017;BME280;54687;50.800;6.772;2022-09-29T09:40:28;60979.72;;;-144.06;53.06
11017;BME280;54687;50.800;6.772;2022-09-29T09:43:03;60975.53;;;-144.06;52.99
11017;BME280;54687;50.800;6.772;2022-09-29T09:45:33;60996.50;;;-144.06;52.78
11017;BME280;54687;50.800;6.772;2022-09-29T09:48:04;61019.53;;;-144.06;52.68
11017;BME280;54687;50.800;6.772;2022-09-29T09:50:37;61038.41;;;-144.06;52.88
11017;BME280;54687;50.800;6.772;2022-09-29T09:53:13;61067.75;;;-144.06;52.88
11017;BME280;54687;50.800;6.772;2022-09-29T09:55:41;60975.53;;;-144.06;52.31
11017;BME280;54687;50.800;6.772;2022-09-29T09:58:31;60979.72;;;-144.06;51.49
11017;BME280;54687;50.800;6.772;2022-09-29T10:01:04;60996.50;;;-144.06;51.62
11017;BME280;54687;50.800;6.772;2022-09-29T10:03:31;61004.88;;;-144.06;50.60
11017;BME280;54687;50.800;6.772;2022-09-29T10:05:59;61000.69;;;-144.06;50.75
11017;BME280;54687;50.800;6.772;2022-09-29T10:08:28;60992.28;;;-144.06;50.89
11017;BME280;54687;50.800;6.772;2022-09-29T10:10:57;61000.69;;;-144.06;51.65
11017;BME280;54687;50.800;6.772;2022-09-29T10:13:26;60948.28;;;-144.06;50.50
11017;BME280;54687;50.800;6.772;2022-09-29T10:15:55;60983.91;;;-144.06;50.02
11017;BME280;54687;50.800;6.772;2022-09-29T10:18:26;61023.75;;;-144.06;51.16
11017;BME280;54687;50.800;6.772;2022-09-29T10:20:55;60975.53;;;-144.06;50.75
11017;BME280;54687;50.800;6.772;2022-09-29T10:23:31;60988.09;;;-144.06;50.81
11017;BME280;54687;50.800;6.772;2022-09-29T10:26:06;60983.91;;;-144.06;50.16
11017;BME280;54687;50.800;6.772;2022-09-29T10:28:42;60996.50;;;-144.06;50.04
11017;BME280;54687;50.800;6.772;2022-09-29T10:31:17;60988.09;;;-144.06;50.17
11017;BME280;54687;50.800;6.772;2022-09-29T10:33:50;60967.13;;;-144.06;48.93
11017;BME280;54687;50.800;6.772;2022-09-29T10:36:18;61009.06;;;-144.06;48.98
11017;BME280;54687;50.800;6.772;2022-09-29T10:38:49;60954.56;;;-144.06;48.36
11017;BME280;54687;50.800;6.772;2022-09-29T10:41:17;60969.22;;;-144.06;49.14
11017;BME280;54687;50.800;6.772;2022-09-29T10:43:46;60954.56;;;-144.06;49.41
11017;BME280;54687;50.800;6.772;2022-09-29T10:46:35;60983.91;;;-144.06;47.83
11017;BME280;54687;50.800;6.772;2022-09-29T10:49:09;60988.09;;;-144.06;47.54
11017;BME280;54687;50.800;6.772;2022-09-29T10:51:39;60956.66;;;-144.06;47.51
11017;BME280;54687;50.800;6.772;2022-09-29T10:54:09;60946.19;;;-144.06;45.16
11017;BME280;54687;50.800;6.772;2022-09-29T10:56:45;60946.19;;;-144.06;45.70
11017;BME280;54687;50.800;6.772;2022-09-29T10:59:13;60992.28;;;-144.06;45.74
11017;BME280;54687;50.800;6.772;2022-09-29T11:01:43;60954.56;;;-144.06;44.13
11017;BME280;54687;50.800;6.772;2022-09-29T11:04:17;60914.72;;;-144.06;44.61
11017;BME280;54687;50.800;6.772;2022-09-29T11:06:45;60895.88;;;-144.06;43.67
11017;BME280;54687;50.800;6.772;2022-09-29T11:09:28;60916.84;;;-144.06;42.58
11017;BME280;54687;50.800;6.772;2022-09-29T11:11:56;60918.94;;;-144.06;42.25
11017;BME280;54687;50.800;6.772;2022-09-29T11:14:25;60900.06;;;-144.06;41.23
11017;BME280;54687;50.800;6.772;2022-09-29T11:16:54;60900.06;;;-144.06;40.03
11017;BME280;54687;50.800;6.772;2022-09-29T11:19:21;60877.00;;;-144.06;40.69
11017;BME280;54687;50.800;6.772;2022-09-29T11:22:13;60921.03;;;-144.06;41.89
11017;BME280;54687;50.800;6.772;2022-09-29T11:25:13;60883.28;;;-144.06;42.05
11017;BME280;54687;50.800;6.772;2022-09-29T11:27:52;60845.56;;;-144.06;40.72
11017;BME280;54687;50.800;6.772;2022-09-29T11:30:23;60870.72;;;-144.06;41.55
11017;BME280;54687;50.800;6.772;2022-09-29T11:33:06;60833.00;;;-144.06;41.72
11017;BME280;54687;50.800;6.772;2022-09-29T11:35:48;60874.91;;;-144.06;41.05
11017;BME280;54687;50.800;6.772;2022-09-29T11:38:37;60856.03;;;-144.06;41.49
11017;BME280;54687;50.800;6.772;2022-09-29T11:41:19;60883.28;;;-144.06;41.54
11017;BME280;54687;50.800;6.772;2022-09-29T11:43:53;60849.75;;;-144.06;41.99
11017;BME280;54687;50.800;6.772;2022-09-29T11:46:38;60851.84;;;-144.06;39.87
11017;BME280;54687;50.800;6.772;2022-09-29T11:49:21;60841.38;;;-144.06;40.74
11017;BME280;54687;50.800;6.772;2022-09-29T11:52:03;60839.28;;;-144.06;40.40
11017;BME280;54687;50.800;6.772;2022-09-29T11:54:47;60874.91;;;-144.06;40.42
11017;BME280;54687;50.800;6.772;2022-09-29T11:57:31;60830.88;;;-144.06;40.54
11017;BME280;54687;50.800;6.772;2022-09-29T12:00:03;60833.00;;;-144.06;39.84
11017;BME280;54687;50.800;6.772;2022-09-29T12:02:59;60853.94;;;-144.06;39.16
11017;BME280;54687;50.800;6.772;2022-09-29T12:05:39;60853.94;;;-144.06;39.45
11017;BME280;54687;50.800;6.772;2022-09-29T12:08:16;60870.72;;;-144.06;39.33
11017;BME280;54687;50.800;6.772;2022-09-29T12:10:54;60809.94;;;-144.06;37.61
11017;BME280;54687;50.800;6.772;2022-09-29T12:13:34;60835.09;;;-144.06;38.76
11017;BME280;54687;50.800;6.772;2022-09-29T12:16:07;60822.50;;;-144.06;39.02
11017;BME280;54687;50.800;6.772;2022-09-29T12:18:38;60812.03;;;-144.06;38.89
11017;BME280;54687;50.800;6.772;2022-09-29T12:21:07;60879.09;;;-144.06;39.00
11017;BME280;54687;50.800;6.772;2022-09-29T12:23:38;60921.03;;;-144.06;38.90
11017;BME280;54687;50.800;6.772;2022-09-29T12:26:08;60952.47;;;-144.06;39.79
11017;BME280;54687;50.800;6.772;2022-09-29T12:28:41;60833.00;;;-144.06;38.78
11017;BME280;54687;50.800;6.772;2022-09-29T12:31:12;60858.13;;;-144.06;38.47
11017;BME280;54687;50.800;6.772;2022-09-29T12:33:43;60879.09;;;-144.06;39.12
11017;BME280;54687;50.800;6.772;2022-09-29T12:36:33;60881.19;;;-144.06;39.18
11017;BME280;54687;50.800;6.772;2022-09-29T12:39:18;60864.44;;;-144.06;39.54
11017;BME280;54687;50.800;6.772;2022-09-29T12:41:50;60841.38;;;-144.06;38.78
11017;BME280;54687;50.800;6.772;2022-09-29T12:44:27;60881.19;;;-144.06;39.06
11017;BME280;54687;50.800;6.772;2022-09-29T12:47:03;60853.94;;;-144.06;39.37
11017;BME280;54687;50.800;6.772;2022-09-29T12:49:38;60822.50;;;-144.06;39.35
11017;BME280;54687;50.800;6.772;2022-09-29T12:52:14;60906.34;;;-144.06;39.70
11017;BME280;54687;50.800;6.772;2022-09-29T12:54:46;60853.94;;;-144.06;40.35
11017;BME280;54687;50.800;6.772;2022-09-29T12:57:15;60853.94;;;-144.06;39.54
11017;BME280;54687;50.800;6.772;2022-09-29T12:59:50;60891.69;;;-144.06;39.25
11017;BME280;54687;50.800;6.772;2022-09-29T13:02:41;60826.69;;;-144.06;39.29
11017;BME280;54687;50.800;6.772;2022-09-29T13:05:35;60853.94;;;-144.06;39.28
11017;BME280;54687;50.800;6.772;2022-09-29T13:08:24;60860.25;;;-144.06;39.19